sensor_id;sensor_type;location;lat;lon;timestamp;P1;durP1;ratioP1;P2;durP2;ratioP2
7583;SDS011;3833;41.764;26.204;2023-08-01T00:00:30;6.50;;;5.90;;
7583;SDS011;3833;41.764;26.204;2023-08-01T00:02:57;5.70;;;5.30;;
7583;SDS011;3833;41.764;26.204;2023-08-01T00:05:24;5.73;;;5.23;;
7583;SDS011;3833;41.764;26.204;2023-08-01T00:07:52;7.20;;;5.67;;
7583;SDS011;3833;41.764;26.204;2023-08-01T00:10:19;5.77;;;5.27;;
7583;SDS011;3833;41.764;26.204;2023-08-01T00:12:46;6.37;;;5.77;;
7583;SDS011;3833;41.764;26.204;2023-08-01T00:15:13;5.80;;;5.20;;
7583;SDS011;3833;41.764;26.204;2023-08-01T00:17:40;8.53;;;5.83;;
7583;SDS011;3833;41.764;26.204;2023-08-01T00:20:07;5.87;;;5.37;;
7583;SDS011;3833;41.764;26.204;2023-08-01T00:22:34;5.47;;;4.97;;
7583;SDS011;3833;41.764;26.204;2023-08-01T00:25:03;5.97;;;5.43;;
7583;SDS011;3833;41.764;26.204;2023-08-01T00:27:30;6.83;;;6.13;;
7583;SDS011;3833;41.764;26.204;2023-08-01T00:29:57;6.70;;;6.10;;
7583;SDS011;3833;41.764;26.204;2023-08-01T00:32:24;6.43;;;5.83;;
7583;SDS011;3833;41.764;26.204;2023-08-01T00:34:51;6.30;;;5.80;;
7583;SDS011;3833;41.764;26.204;2023-08-01T00:37:17;6.67;;;6.07;;
7583;SDS011;3833;41.764;26.204;2023-08-01T00:39:44;7.40;;;6.70;;
7583;SDS011;3833;41.764;26.204;2023-08-01T00:42:12;6.63;;;6.03;;
7583;SDS011;3833;41.764;26.204;2023-08-01T00:44:39;7.30;;;6.60;;
7583;SDS011;3833;41.764;26.204;2023-08-01T00:47:06;7.37;;;6.67;;
7583;SDS011;3833;41.764;26.204;2023-08-01T00:49:33;7.60;;;6.90;;
7583;SDS011;3833;41.764;26.204;2023-08-01T00:52:00;7.10;;;6.50;;
7583;SDS011;3833;41.764;26.204;2023-08-01T00:54:26;8.03;;;7.23;;
7583;SDS011;3833;41.764;26.204;2023-08-01T00:56:55;7.27;;;6.67;;
7583;SDS011;3833;41.764;26.204;2023-08-01T00:59:23;7.03;;;6.43;;
7583;SDS011;3833;41.764;26.204;2023-08-01T01:01:50;6.60;;;6.00;;
7583;SDS011;3833;41.764;26.204;2023-08-01T01:04:17;7.70;;;7.00;;
7583;SDS011;3833;41.764;26.204;2023-08-01T01:06:44;7.83;;;7.17;;
7583;SDS011;3833;41.764;26.204;2023-08-01T01:09:15;8.37;;;7.60;;
7583;SDS011;3833;41.764;26.204;2023-08-01T01:11:43;7.30;;;6.70;;
7583;SDS011;3833;41.764;26.204;2023-08-01T01:14:10;7.90;;;7.10;;
7583;SDS011;3833;41.764;26.204;2023-08-01T01:16:39;7.07;;;6.47;;
7583;SDS011;3833;41.764;26.204;2023-08-01T01:19:06;7.70;;;7.00;;
7583;SDS011;3833;41.764;26.204;2023-08-01T01:21:35;9.33;;;6.90;;
7583;SDS011;3833;41.764;26.204;2023-08-01T01:24:04;8.43;;;7.63;;
7583;SDS011;3833;41.764;26.204;2023-08-01T01:26:32;7.63;;;7.03;;
7583;SDS011;3833;41.764;26.204;2023-08-01T01:28:59;7.20;;;6.50;;
7583;SDS011;3833;41.764;26.204;2023-08-01T01:31:27;7.13;;;6.53;;
7583;SDS011;3833;41.764;26.204;2023-08-01T01:33:54;7.97;;;7.27;;
7583;SDS011;3833;41.764;26.204;2023-08-01T01:36:21;7.20;;;6.50;;
7583;SDS011;3833;41.764;26.204;2023-08-01T01:38:49;7.40;;;6.80;;
7583;SDS011;3833;41.764;26.204;2023-08-01T01:41:16;6.93;;;6.30;;
7583;SDS011;3833;41.764;26.204;2023-08-01T01:43:43;7.47;;;6.87;;
7583;SDS011;3833;41.764;26.204;2023-08-01T01:46:10;7.40;;;6.70;;
7583;SDS011;3833;41.764;26.204;2023-08-01T01:48:37;6.73;;;6.23;;
7583;SDS011;3833;41.764;26.204;2023-08-01T01:51:03;7.63;;;7.03;;
7583;SDS011;3833;41.764;26.204;2023-08-01T01:53:30;7.20;;;6.47;;
7583;SDS011;3833;41.764;26.204;2023-08-01T01:55:58;7.17;;;6.50;;
7583;SDS011;3833;41.764;26.204;2023-08-01T01:58:25;8.63;;;7.23;;
7583;SDS011;3833;41.764;26.204;2023-08-01T02:00:52;7.07;;;6.47;;
7583;SDS011;3833;41.764;26.204;2023-08-01T02:03:19;6.73;;;6.17;;
7583;SDS011;3833;41.764;26.204;2023-08-01T02:05:45;6.93;;;6.43;;
7583;SDS011;3833;41.764;26.204;2023-08-01T02:08:12;7.43;;;6.73;;
7583;SDS011;3833;41.764;26.204;2023-08-01T02:10:39;7.27;;;6.40;;
7583;SDS011;3833;41.764;26.204;2023-08-01T02:13:07;7.40;;;6.63;;
7583;SDS011;3833;41.764;26.204;2023-08-01T02:15:34;7.53;;;6.83;;
7583;SDS011;3833;41.764;26.204;2023-08-01T02:18:01;6.83;;;6.23;;
7583;SDS011;3833;41.764;26.204;2023-08-01T02:20:27;7.30;;;6.67;;
7583;SDS011;3833;41.764;26.204;2023-08-01T02:22:54;7.30;;;6.70;;
7583;SDS011;3833;41.764;26.204;2023-08-01T02:25:21;7.60;;;6.90;;
7583;SDS011;3833;41.764;26.204;2023-08-01T02:27:48;7.57;;;6.83;;
7583;SDS011;3833;41.764;26.204;2023-08-01T02:30:16;7.83;;;7.03;;
7583;SDS011;3833;41.764;26.204;2023-08-01T02:32:43;8.10;;;7.30;;
7583;SDS011;3833;41.764;26.204;2023-08-01T02:35:10;7.90;;;7.20;;
7583;SDS011;3833;41.764;26.204;2023-08-01T02:37:37;6.90;;;6.30;;
7583;SDS011;3833;41.764;26.204;2023-08-01T02:40:05;7.30;;;6.70;;
7583;SDS011;3833;41.764;26.204;2023-08-01T02:42:34;7.30;;;6.70;;
7583;SDS011;3833;41.764;26.204;2023-08-01T02:45:00;7.90;;;7.20;;
7583;SDS011;3833;41.764;26.204;2023-08-01T02:47:28;8.43;;;7.40;;
7583;SDS011;3833;41.764;26.204;2023-08-01T02:49:55;7.70;;;7.00;;
7583;SDS011;3833;41.764;26.204;2023-08-01T02:52:22;7.90;;;6.67;;
7583;SDS011;3833;41.764;26.204;2023-08-01T02:54:48;7.87;;;7.17;;
7583;SDS011;3833;41.764;26.204;2023-08-01T02:57:15;7.43;;;6.73;;
7583;SDS011;3833;41.764;26.204;2023-08-01T02:59:42;8.13;;;7.07;;
7583;SDS011;3833;41.764;26.204;2023-08-01T03:02:09;7.57;;;6.87;;
7583;SDS011;3833;41.764;26.204;2023-08-01T03:04:37;8.50;;;7.80;;
7583;SDS011;3833;41.764;26.204;2023-08-01T03:07:04;8.40;;;7.70;;
7583;SDS011;3833;41.764;26.204;2023-08-01T03:09:31;8.27;;;7.53;;
7583;SDS011;3833;41.764;26.204;2023-08-01T03:11:58;8.50;;;7.77;;
7583;SDS011;3833;41.764;26.204;2023-08-01T03:14:25;8.27;;;7.57;;
7583;SDS011;3833;41.764;26.204;2023-08-01T03:16:52;9.03;;;8.23;;
7583;SDS011;3833;41.764;26.204;2023-08-01T03:19:19;9.80;;;8.00;;
7583;SDS011;3833;41.764;26.204;2023-08-01T03:21:47;8.03;;;7.30;;
7583;SDS011;3833;41.764;26.204;2023-08-01T03:24:13;10.10;;;8.03;;
7583;SDS011;3833;41.764;26.204;2023-08-01T03:26:40;8.77;;;8.00;;
7583;SDS011;3833;41.764;26.204;2023-08-01T03:29:07;7.97;;;7.23;;
7583;SDS011;3833;41.764;26.204;2023-08-01T03:31:34;8.47;;;7.53;;
7583;SDS011;3833;41.764;26.204;2023-08-01T03:34:01;8.70;;;7.63;;
7583;SDS011;3833;41.764;26.204;2023-08-01T03:36:27;9.47;;;7.33;;
7583;SDS011;3833;41.764;26.204;2023-08-01T03:38:56;8.10;;;7.30;;
7583;SDS011;3833;41.764;26.204;2023-08-01T03:41:22;10.53;;;7.73;;
7583;SDS011;3833;41.764;26.204;2023-08-01T03:43:49;8.17;;;7.47;;
7583;SDS011;3833;41.764;26.204;2023-08-01T03:46:16;8.60;;;7.90;;
7583;SDS011;3833;41.764;26.204;2023-08-01T03:48:43;8.43;;;7.70;;
7583;SDS011;3833;41.764;26.204;2023-08-01T03:51:09;8.60;;;7.90;;
7583;SDS011;3833;41.764;26.204;2023-08-01T03:53:36;8.73;;;7.93;;
7583;SDS011;3833;41.764;26.204;2023-08-01T03:56:05;8.97;;;8.17;;
7583;SDS011;3833;41.764;26.204;2023-08-01T03:58:31;8.47;;;7.67;;
7583;SDS011;3833;41.764;26.204;2023-08-01T04:00:58;10.23;;;8.37;;
7583;SDS011;3833;41.764;26.204;2023-08-01T04:03:25;8.83;;;8.03;;
7583;SDS011;3833;41.764;26.204;2023-08-01T04:05:52;9.97;;;9.07;;
7583;SDS011;3833;41.764;26.204;2023-08-01T04:08:19;9.97;;;8.97;;
7583;SDS011;3833;41.764;26.204;2023-08-01T04:10:45;8.97;;;8.17;;
7583;SDS011;3833;41.764;26.204;2023-08-01T04:13:14;10.00;;;9.07;;
7583;SDS011;3833;41.764;26.204;2023-08-01T04:15:40;9.47;;;8.57;;
7583;SDS011;3833;41.764;26.204;2023-08-01T04:18:07;9.60;;;8.60;;
7583;SDS011;3833;41.764;26.204;2023-08-01T04:20:34;10.83;;;9.30;;
7583;SDS011;3833;41.764;26.204;2023-08-01T04:23:01;9.43;;;8.63;;
7583;SDS011;3833;41.764;26.204;2023-08-01T04:25:28;9.43;;;8.63;;
7583;SDS011;3833;41.764;26.204;2023-08-01T04:27:54;14.13;;;12.83;;
7583;SDS011;3833;41.764;26.204;2023-08-01T04:30:23;9.90;;;9.00;;
7583;SDS011;3833;41.764;26.204;2023-08-01T04:32:49;10.07;;;9.17;;
7583;SDS011;3833;41.764;26.204;2023-08-01T04:35:17;9.87;;;9.03;;
7583;SDS011;3833;41.764;26.204;2023-08-01T04:37:43;9.57;;;8.57;;
7583;SDS011;3833;41.764;26.204;2023-08-01T04:40:11;9.13;;;8.33;;
7583;SDS011;3833;41.764;26.204;2023-08-01T04:42:38;9.93;;;9.03;;
7583;SDS011;3833;41.764;26.204;2023-08-01T04:45:05;10.60;;;9.60;;
7583;SDS011;3833;41.764;26.204;2023-08-01T04:47:34;10.53;;;9.60;;
7583;SDS011;3833;41.764;26.204;2023-08-01T04:50:01;10.40;;;9.50;;
7583;SDS011;3833;41.764;26.204;2023-08-01T04:52:28;10.50;;;9.60;;
7583;SDS011;3833;41.764;26.204;2023-08-01T04:54:55;10.53;;;9.53;;
7583;SDS011;3833;41.764;26.204;2023-08-01T04:57:21;10.57;;;9.67;;
7583;SDS011;3833;41.764;26.204;2023-08-01T04:59:48;10.37;;;9.37;;
7583;SDS011;3833;41.764;26.204;2023-08-01T05:02:15;10.63;;;9.73;;
7583;SDS011;3833;41.764;26.204;2023-08-01T05:04:43;11.13;;;10.13;;
7583;SDS011;3833;41.764;26.204;2023-08-01T05:07:10;10.73;;;9.73;;
7583;SDS011;3833;41.764;26.204;2023-08-01T05:09:37;10.77;;;9.67;;
7583;SDS011;3833;41.764;26.204;2023-08-01T05:12:04;10.87;;;9.83;;
7583;SDS011;3833;41.764;26.204;2023-08-01T05:14:31;11.83;;;10.73;;
7583;SDS011;3833;41.764;26.204;2023-08-01T05:16:58;12.40;;;11.27;;
7583;SDS011;3833;41.764;26.204;2023-08-01T05:19:25;11.13;;;10.13;;
7583;SDS011;3833;41.764;26.204;2023-08-01T05:21:53;11.60;;;10.60;;
7583;SDS011;3833;41.764;26.204;2023-08-01T05:24:20;11.63;;;10.57;;
7583;SDS011;3833;41.764;26.204;2023-08-01T05:26:47;12.80;;;11.70;;
7583;SDS011;3833;41.764;26.204;2023-08-01T05:29:14;13.33;;;12.17;;
7583;SDS011;3833;41.764;26.204;2023-08-01T05:31:41;13.23;;;12.00;;
7583;SDS011;3833;41.764;26.204;2023-08-01T05:34:08;14.17;;;12.77;;
7583;SDS011;3833;41.764;26.204;2023-08-01T05:36:35;14.03;;;12.23;;
7583;SDS011;3833;41.764;26.204;2023-08-01T05:39:03;12.87;;;11.63;;
7583;SDS011;3833;41.764;26.204;2023-08-01T05:41:30;13.47;;;12.27;;
7583;SDS011;3833;41.764;26.204;2023-08-01T05:43:57;13.40;;;12.03;;
7583;SDS011;3833;41.764;26.204;2023-08-01T05:46:24;13.43;;;12.13;;
7583;SDS011;3833;41.764;26.204;2023-08-01T05:48:51;13.40;;;12.10;;
7583;SDS011;3833;41.764;26.204;2023-08-01T05:51:18;14.83;;;13.27;;
7583;SDS011;3833;41.764;26.204;2023-08-01T05:53:44;12.53;;;11.43;;
7583;SDS011;3833;41.764;26.204;2023-08-01T05:56:13;13.17;;;11.97;;
7583;SDS011;3833;41.764;26.204;2023-08-01T05:58:40;12.57;;;11.37;;
7583;SDS011;3833;41.764;26.204;2023-08-01T06:01:07;13.07;;;11.17;;
7583;SDS011;3833;41.764;26.204;2023-08-01T06:03:34;12.37;;;11.27;;
7583;SDS011;3833;41.764;26.204;2023-08-01T06:06:01;14.13;;;11.50;;
7583;SDS011;3833;41.764;26.204;2023-08-01T06:08:27;12.43;;;11.20;;
7583;SDS011;3833;41.764;26.204;2023-08-01T06:10:54;11.43;;;10.30;;
7583;SDS011;3833;41.764;26.204;2023-08-01T06:13:23;11.20;;;10.20;;
7583;SDS011;3833;41.764;26.204;2023-08-01T06:15:49;12.47;;;11.20;;
7583;SDS011;3833;41.764;26.204;2023-08-01T06:18:16;11.03;;;10.17;;
7583;SDS011;3833;41.764;26.204;2023-08-01T06:20:43;11.30;;;10.30;;
7583;SDS011;3833;41.764;26.204;2023-08-01T06:23:10;10.83;;;9.80;;
7583;SDS011;3833;41.764;26.204;2023-08-01T06:25:37;10.90;;;9.90;;
7583;SDS011;3833;41.764;26.204;2023-08-01T06:28:04;11.70;;;10.50;;
7583;SDS011;3833;41.764;26.204;2023-08-01T06:30:32;11.10;;;10.07;;
7583;SDS011;3833;41.764;26.204;2023-08-01T06:32:58;10.57;;;9.63;;
7583;SDS011;3833;41.764;26.204;2023-08-01T06:35:25;10.87;;;9.87;;
7583;SDS011;3833;41.764;26.204;2023-08-01T06:37:52;9.67;;;8.67;;
7583;SDS011;3833;41.764;26.204;2023-08-01T06:40:19;12.20;;;9.70;;
7583;SDS011;3833;41.764;26.204;2023-08-01T06:42:46;9.30;;;8.50;;
7583;SDS011;3833;41.764;26.204;2023-08-01T06:45:12;8.87;;;7.97;;
7583;SDS011;3833;41.764;26.204;2023-08-01T06:47:41;9.30;;;8.47;;
7583;SDS011;3833;41.764;26.204;2023-08-01T06:50:08;9.13;;;8.33;;
7583;SDS011;3833;41.764;26.204;2023-08-01T06:52:35;9.63;;;8.77;;
7583;SDS011;3833;41.764;26.204;2023-08-01T06:55:02;10.50;;;8.53;;
7583;SDS011;3833;41.764;26.204;2023-08-01T06:57:29;8.70;;;7.97;;
7583;SDS011;3833;41.764;26.204;2023-08-01T06:59:56;8.53;;;7.80;;
7583;SDS011;3833;41.764;26.204;2023-08-01T07:02:23;8.33;;;7.60;;
7583;SDS011;3833;41.764;26.204;2023-08-01T07:04:52;9.27;;;8.47;;
7583;SDS011;3833;41.764;26.204;2023-08-01T07:07:18;13.00;;;8.10;;
7583;SDS011;3833;41.764;26.204;2023-08-01T07:09:45;8.10;;;7.40;;
7583;SDS011;3833;41.764;26.204;2023-08-01T07:12:12;8.23;;;6.80;;
7583;SDS011;3833;41.764;26.204;2023-08-01T07:14:39;7.87;;;7.13;;
7583;SDS011;3833;41.764;26.204;2023-08-01T07:17:06;8.20;;;7.53;;
7583;SDS011;3833;41.764;26.204;2023-08-01T07:19:33;7.90;;;7.27;;
7583;SDS011;3833;41.764;26.204;2023-08-01T07:22:01;8.63;;;7.93;;
7583;SDS011;3833;41.764;26.204;2023-08-01T07:24:28;8.70;;;7.80;;
7583;SDS011;3833;41.764;26.204;2023-08-01T07:26:55;8.37;;;7.57;;
7583;SDS011;3833;41.764;26.204;2023-08-01T07:29:22;7.83;;;7.23;;
7583;SDS011;3833;41.764;26.204;2023-08-01T07:31:49;8.40;;;7.60;;
7583;SDS011;3833;41.764;26.204;2023-08-01T07:34:15;7.63;;;6.93;;
7583;SDS011;3833;41.764;26.204;2023-08-01T07:36:42;8.20;;;7.40;;
7583;SDS011;3833;41.764;26.204;2023-08-01T07:39:15;8.57;;;7.27;;
7583;SDS011;3833;41.764;26.204;2023-08-01T07:41:42;7.30;;;6.80;;
7583;SDS011;3833;41.764;26.204;2023-08-01T07:44:08;6.87;;;6.17;;
7583;SDS011;3833;41.764;26.204;2023-08-01T07:46:35;6.80;;;6.20;;
7583;SDS011;3833;41.764;26.204;2023-08-01T07:49:02;6.60;;;5.90;;
7583;SDS011;3833;41.764;26.204;2023-08-01T07:51:29;6.80;;;6.20;;
7583;SDS011;3833;41.764;26.204;2023-08-01T07:53:56;6.47;;;5.97;;
7583;SDS011;3833;41.764;26.204;2023-08-01T07:56:24;6.20;;;5.80;;
7583;SDS011;3833;41.764;26.204;2023-08-01T07:58:51;6.47;;;5.87;;
7583;SDS011;3833;41.764;26.204;2023-08-01T08:01:18;7.07;;;6.37;;
7583;SDS011;3833;41.764;26.204;2023-08-01T08:03:45;7.00;;;6.33;;
7583;SDS011;3833;41.764;26.204;2023-08-01T08:06:12;6.40;;;5.90;;
7583;SDS011;3833;41.764;26.204;2023-08-01T08:08:39;6.20;;;5.60;;
7583;SDS011;3833;41.764;26.204;2023-08-01T08:11:05;6.17;;;5.67;;
7583;SDS011;3833;41.764;26.204;2023-08-01T08:13:34;7.03;;;6.47;;
7583;SDS011;3833;41.764;26.204;2023-08-01T08:16:00;6.37;;;5.77;;
7583;SDS011;3833;41.764;26.204;2023-08-01T08:18:29;7.47;;;6.87;;
7583;SDS011;3833;41.764;26.204;2023-08-01T08:20:56;6.40;;;5.90;;
7583;SDS011;3833;41.764;26.204;2023-08-01T08:23:23;6.30;;;5.90;;
7583;SDS011;3833;41.764;26.204;2023-08-01T08:25:50;6.20;;;5.70;;
7583;SDS011;3833;41.764;26.204;2023-08-01T08:28:26;8.33;;;6.13;;
7583;SDS011;3833;41.764;26.204;2023-08-01T08:30:56;6.37;;;5.87;;
7583;SDS011;3833;41.764;26.204;2023-08-01T08:33:23;6.83;;;6.33;;
7583;SDS011;3833;41.764;26.204;2023-08-01T08:35:50;6.97;;;6.47;;
7583;SDS011;3833;41.764;26.204;2023-08-01T08:38:17;7.00;;;6.40;;
7583;SDS011;3833;41.764;26.204;2023-08-01T08:40:47;6.57;;;6.07;;
7583;SDS011;3833;41.764;26.204;2023-08-01T08:43:18;6.80;;;6.30;;
7583;SDS011;3833;41.764;26.204;2023-08-01T08:45:46;7.30;;;6.80;;
7583;SDS011;3833;41.764;26.204;2023-08-01T08:48:17;6.97;;;6.43;;
7583;SDS011;3833;41.764;26.204;2023-08-01T08:50:45;6.50;;;5.70;;
7583;SDS011;3833;41.764;26.204;2023-08-01T08:53:12;6.97;;;6.47;;
7583;SDS011;3833;41.764;26.204;2023-08-01T08:55:39;7.13;;;6.53;;
7583;SDS011;3833;41.764;26.204;2023-08-01T08:58:07;6.90;;;6.30;;
7583;SDS011;3833;41.764;26.204;2023-08-01T09:00:35;6.30;;;5.80;;
7583;SDS011;3833;41.764;26.204;2023-08-01T09:03:02;6.87;;;5.60;;
7583;SDS011;3833;41.764;26.204;2023-08-01T09:05:31;5.83;;;5.43;;
7583;SDS011;3833;41.764;26.204;2023-08-01T09:08:01;6.03;;;5.43;;
7583;SDS011;3833;41.764;26.204;2023-08-01T09:10:31;5.97;;;5.37;;
7583;SDS011;3833;41.764;26.204;2023-08-01T09:12:58;6.47;;;5.60;;
7583;SDS011;3833;41.764;26.204;2023-08-01T09:15:25;6.30;;;5.80;;
7583;SDS011;3833;41.764;26.204;2023-08-01T09:17:53;5.47;;;4.93;;
7583;SDS011;3833;41.764;26.204;2023-08-01T09:20:25;6.07;;;5.57;;
7583;SDS011;3833;41.764;26.204;2023-08-01T09:22:54;5.00;;;4.60;;
7583;SDS011;3833;41.764;26.204;2023-08-01T09:25:30;4.93;;;4.53;;
7583;SDS011;3833;41.764;26.204;2023-08-01T09:27:57;5.70;;;5.20;;
7583;SDS011;3833;41.764;26.204;2023-08-01T09:30:24;5.57;;;5.17;;
7583;SDS011;3833;41.764;26.204;2023-08-01T09:32:51;5.30;;;4.90;;
7583;SDS011;3833;41.764;26.204;2023-08-01T09:35:18;5.00;;;4.60;;
7583;SDS011;3833;41.764;26.204;2023-08-01T09:37:46;5.07;;;4.67;;
7583;SDS011;3833;41.764;26.204;2023-08-01T09:40:15;4.93;;;4.50;;
7583;SDS011;3833;41.764;26.204;2023-08-01T09:42:42;5.33;;;4.83;;
7583;SDS011;3833;41.764;26.204;2023-08-01T09:45:12;5.50;;;5.10;;
7583;SDS011;3833;41.764;26.204;2023-08-01T09:47:40;5.43;;;4.93;;
7583;SDS011;3833;41.764;26.204;2023-08-01T09:50:08;5.63;;;5.23;;
7583;SDS011;3833;41.764;26.204;2023-08-01T09:52:36;5.30;;;4.90;;
7583;SDS011;3833;41.764;26.204;2023-08-01T09:55:03;5.33;;;4.90;;
7583;SDS011;3833;41.764;26.204;2023-08-01T09:57:32;5.43;;;4.73;;
7583;SDS011;3833;41.764;26.204;2023-08-01T10:00:01;6.00;;;5.60;;
7583;SDS011;3833;41.764;26.204;2023-08-01T10:02:29;8.00;;;5.63;;
7583;SDS011;3833;41.764;26.204;2023-08-01T10:04:58;4.97;;;4.57;;
7583;SDS011;3833;41.764;26.204;2023-08-01T10:07:28;4.93;;;4.53;;
7583;SDS011;3833;41.764;26.204;2023-08-01T10:09:57;5.03;;;4.63;;
7583;SDS011;3833;41.764;26.204;2023-08-01T10:12:25;5.00;;;4.60;;
7583;SDS011;3833;41.764;26.204;2023-08-01T10:14:54;5.22;;;4.82;;
7583;SDS011;3833;41.764;26.204;2023-08-01T10:17:22;5.25;;;4.85;;
7583;SDS011;3833;41.764;26.204;2023-08-01T10:19:50;4.82;;;4.53;;
7583;SDS011;3833;41.764;26.204;2023-08-01T10:22:17;4.80;;;4.47;;
7583;SDS011;3833;41.764;26.204;2023-08-01T10:24:44;5.70;;;5.30;;
7583;SDS011;3833;41.764;26.204;2023-08-01T10:27:12;5.57;;;5.03;;
7583;SDS011;3833;41.764;26.204;2023-08-01T10:29:40;5.30;;;4.88;;
7583;SDS011;3833;41.764;26.204;2023-08-01T10:32:09;5.72;;;5.30;;
7583;SDS011;3833;41.764;26.204;2023-08-01T10:34:36;5.82;;;5.32;;
7583;SDS011;3833;41.764;26.204;2023-08-01T10:37:04;4.82;;;4.53;;
7583;SDS011;3833;41.764;26.204;2023-08-01T10:39:31;5.82;;;5.43;;
7583;SDS011;3833;41.764;26.204;2023-08-01T10:41:58;4.95;;;4.55;;
7583;SDS011;3833;41.764;26.204;2023-08-01T10:44:26;5.50;;;5.10;;
7583;SDS011;3833;41.764;26.204;2023-08-01T10:46:54;6.55;;;5.32;;
7583;SDS011;3833;41.764;26.204;2023-08-01T10:49:32;6.10;;;5.50;;
7583;SDS011;3833;41.764;26.204;2023-08-01T10:52:00;7.28;;;6.05;;
7583;SDS011;3833;41.764;26.204;2023-08-01T10:54:27;6.60;;;6.10;;
7583;SDS011;3833;41.764;26.204;2023-08-01T10:56:55;5.88;;;5.38;;
7583;SDS011;3833;41.764;26.204;2023-08-01T10:59:23;5.78;;;5.30;;
7583;SDS011;3833;41.764;26.204;2023-08-01T11:01:51;6.60;;;6.10;;
7583;SDS011;3833;41.764;26.204;2023-08-01T11:04:19;5.90;;;5.40;;
7583;SDS011;3833;41.764;26.204;2023-08-01T11:06:49;6.43;;;5.85;;
7583;SDS011;3833;41.764;26.204;2023-08-01T11:09:17;6.23;;;5.73;;
7583;SDS011;3833;41.764;26.204;2023-08-01T11:11:45;6.20;;;5.70;;
7583;SDS011;3833;41.764;26.204;2023-08-01T11:14:14;6.20;;;5.57;;
7583;SDS011;3833;41.764;26.204;2023-08-01T11:16:41;6.33;;;5.83;;
7583;SDS011;3833;41.764;26.204;2023-08-01T11:19:17;6.50;;;5.90;;
7583;SDS011;3833;41.764;26.204;2023-08-01T11:21:45;5.67;;;5.17;;
7583;SDS011;3833;41.764;26.204;2023-08-01T11:24:13;6.13;;;5.30;;
7583;SDS011;3833;41.764;26.204;2023-08-01T11:26:44;6.20;;;5.70;;
7583;SDS011;3833;41.764;26.204;2023-08-01T11:29:12;6.03;;;5.43;;
7583;SDS011;3833;41.764;26.204;2023-08-01T11:31:40;6.83;;;6.33;;
7583;SDS011;3833;41.764;26.204;2023-08-01T11:34:07;6.90;;;6.40;;
7583;SDS011;3833;41.764;26.204;2023-08-01T11:36:35;6.20;;;5.70;;
7583;SDS011;3833;41.764;26.204;2023-08-01T11:39:03;6.60;;;6.10;;
7583;SDS011;3833;41.764;26.204;2023-08-01T11:41:34;5.80;;;5.40;;
7583;SDS011;3833;41.764;26.204;2023-08-01T11:44:01;6.07;;;5.67;;
7583;SDS011;3833;41.764;26.204;2023-08-01T11:46:32;6.50;;;5.90;;
7583;SDS011;3833;41.764;26.204;2023-08-01T11:49:00;6.47;;;6.03;;
7583;SDS011;3833;41.764;26.204;2023-08-01T11:51:27;6.37;;;5.77;;
7583;SDS011;3833;41.764;26.204;2023-08-01T11:53:58;6.57;;;6.07;;
7583;SDS011;3833;41.764;26.204;2023-08-01T11:56:25;9.70;;;6.63;;
7583;SDS011;3833;41.764;26.204;2023-08-01T11:58:53;6.83;;;6.33;;
7583;SDS011;3833;41.764;26.204;2023-08-01T12:01:20;6.37;;;5.87;;
7583;SDS011;3833;41.764;26.204;2023-08-01T12:03:48;6.17;;;5.70;;
7583;SDS011;3833;41.764;26.204;2023-08-01T12:06:16;6.20;;;5.77;;
7583;SDS011;3833;41.764;26.204;2023-08-01T12:08:45;7.50;;;6.90;;
7583;SDS011;3833;41.764;26.204;2023-08-01T12:11:19;6.50;;;5.90;;
7583;SDS011;3833;41.764;26.204;2023-08-01T12:13:47;6.73;;;6.23;;
7583;SDS011;3833;41.764;26.204;2023-08-01T12:16:15;6.30;;;5.90;;
7583;SDS011;3833;41.764;26.204;2023-08-01T12:18:45;7.20;;;6.50;;
7583;SDS011;3833;41.764;26.204;2023-08-01T12:21:13;5.30;;;4.93;;
7583;SDS011;3833;41.764;26.204;2023-08-01T12:23:40;6.43;;;5.80;;
7583;SDS011;3833;41.764;26.204;2023-08-01T12:26:07;6.90;;;6.38;;
7583;SDS011;3833;41.764;26.204;2023-08-01T12:28:34;7.10;;;6.53;;
7583;SDS011;3833;41.764;26.204;2023-08-01T12:31:01;6.35;;;5.95;;
7583;SDS011;3833;41.764;26.204;2023-08-01T12:33:30;5.95;;;5.50;;
7583;SDS011;3833;41.764;26.204;2023-08-01T12:35:58;6.25;;;5.82;;
7583;SDS011;3833;41.764;26.204;2023-08-01T12:38:25;6.40;;;5.90;;
7583;SDS011;3833;41.764;26.204;2023-08-01T12:40:52;6.40;;;6.00;;
7583;SDS011;3833;41.764;26.204;2023-08-01T12:43:19;6.40;;;5.95;;
7583;SDS011;3833;41.764;26.204;2023-08-01T12:45:46;6.53;;;6.03;;
7583;SDS011;3833;41.764;26.204;2023-08-01T12:48:13;6.47;;;6.03;;
7583;SDS011;3833;41.764;26.204;2023-08-01T12:50:44;6.22;;;5.72;;
7583;SDS011;3833;41.764;26.204;2023-08-01T12:53:11;6.93;;;6.35;;
7583;SDS011;3833;41.764;26.204;2023-08-01T12:55:38;6.90;;;6.40;;
7583;SDS011;3833;41.764;26.204;2023-08-01T12:58:06;7.68;;;7.07;;
7583;SDS011;3833;41.764;26.204;2023-08-01T13:00:33;5.78;;;5.38;;
7583;SDS011;3833;41.764;26.204;2023-08-01T13:03:00;6.40;;;6.00;;
7583;SDS011;3833;41.764;26.204;2023-08-01T13:05:27;6.07;;;5.68;;
7583;SDS011;3833;41.764;26.204;2023-08-01T13:07:55;6.32;;;5.93;;
7583;SDS011;3833;41.764;26.204;2023-08-01T13:10:22;6.10;;;5.70;;
7583;SDS011;3833;41.764;26.204;2023-08-01T13:12:49;6.18;;;5.72;;
7583;SDS011;3833;41.764;26.204;2023-08-01T13:15:16;6.60;;;6.10;;
7583;SDS011;3833;41.764;26.204;2023-08-01T13:17:45;6.37;;;5.87;;
7583;SDS011;3833;41.764;26.204;2023-08-01T13:20:12;7.27;;;6.67;;
7583;SDS011;3833;41.764;26.204;2023-08-01T13:22:39;6.30;;;5.80;;
7583;SDS011;3833;41.764;26.204;2023-08-01T13:25:08;6.87;;;6.27;;
7583;SDS011;3833;41.764;26.204;2023-08-01T13:27:35;6.33;;;5.80;;
7583;SDS011;3833;41.764;26.204;2023-08-01T13:30:02;6.90;;;6.30;;
7583;SDS011;3833;41.764;26.204;2023-08-01T13:32:29;6.83;;;6.33;;
7583;SDS011;3833;41.764;26.204;2023-08-01T13:34:56;6.80;;;6.30;;
7583;SDS011;3833;41.764;26.204;2023-08-01T13:37:23;6.10;;;5.70;;
7583;SDS011;3833;41.764;26.204;2023-08-01T13:39:50;6.50;;;6.00;;
7583;SDS011;3833;41.764;26.204;2023-08-01T13:42:19;7.00;;;6.43;;
7583;SDS011;3833;41.764;26.204;2023-08-01T13:44:46;7.10;;;6.40;;
7583;SDS011;3833;41.764;26.204;2023-08-01T13:47:14;6.70;;;6.20;;
7583;SDS011;3833;41.764;26.204;2023-08-01T13:49:41;5.97;;;5.57;;
7583;SDS011;3833;41.764;26.204;2023-08-01T13:52:08;6.63;;;6.13;;
7583;SDS011;3833;41.764;26.204;2023-08-01T13:54:34;6.43;;;6.03;;
7583;SDS011;3833;41.764;26.204;2023-08-01T13:57:01;6.27;;;5.77;;
7583;SDS011;3833;41.764;26.204;2023-08-01T13:59:30;6.55;;;6.13;;
7583;SDS011;3833;41.764;26.204;2023-08-01T14:01:57;6.72;;;6.22;;
7583;SDS011;3833;41.764;26.204;2023-08-01T14:04:25;6.22;;;5.68;;
7583;SDS011;3833;41.764;26.204;2023-08-01T14:06:52;7.13;;;6.43;;
7583;SDS011;3833;41.764;26.204;2023-08-01T14:09:18;6.57;;;6.07;;
7583;SDS011;3833;41.764;26.204;2023-08-01T14:11:45;6.57;;;6.07;;
7583;SDS011;3833;41.764;26.204;2023-08-01T14:14:12;5.80;;;5.40;;
7583;SDS011;3833;41.764;26.204;2023-08-01T14:16:41;6.80;;;6.30;;
7583;SDS011;3833;41.764;26.204;2023-08-01T14:19:08;6.78;;;6.18;;
7583;SDS011;3833;41.764;26.204;2023-08-01T14:21:34;7.33;;;6.63;;
7583;SDS011;3833;41.764;26.204;2023-08-01T14:24:01;6.50;;;5.93;;
7583;SDS011;3833;41.764;26.204;2023-08-01T14:26:28;6.53;;;5.97;;
7583;SDS011;3833;41.764;26.204;2023-08-01T14:28:55;6.53;;;6.03;;
7583;SDS011;3833;41.764;26.204;2023-08-01T14:31:22;5.70;;;5.30;;
7583;SDS011;3833;41.764;26.204;2023-08-01T14:33:50;6.20;;;5.80;;
7583;SDS011;3833;41.764;26.204;2023-08-01T14:36:17;6.20;;;5.60;;
7583;SDS011;3833;41.764;26.204;2023-08-01T14:38:44;6.37;;;5.90;;
7583;SDS011;3833;41.764;26.204;2023-08-01T14:41:14;5.90;;;5.40;;
7583;SDS011;3833;41.764;26.204;2023-08-01T14:43:41;6.73;;;6.17;;
7583;SDS011;3833;41.764;26.204;2023-08-01T14:46:09;6.43;;;5.93;;
7583;SDS011;3833;41.764;26.204;2023-08-01T14:48:36;5.77;;;5.37;;
7583;SDS011;3833;41.764;26.204;2023-08-01T14:51:06;6.40;;;6.00;;
7583;SDS011;3833;41.764;26.204;2023-08-01T14:53:33;6.13;;;5.67;;
7583;SDS011;3833;41.764;26.204;2023-08-01T14:56:00;6.30;;;5.90;;
7583;SDS011;3833;41.764;26.204;2023-08-01T14:58:28;6.10;;;5.60;;